Time;durP1;ratioP1;P1;durP2;ratioP2;P2;SDS_P1;SDS_P2;PMS_P1;PMS_P2;Temp;Humidity;BMP_temperature;BMP_pressure;BME280_temperature;BME280_humidity;BME280_pressure;Samples;Min_cycle;Max_cycle;Signal;HPM_P1;HPM_P2
2022/12/02 00:00:26;;;;;;;35.87;19.33;;;;;;;1.77;100.00;101957.23;5017247;56;1141098;-66
2022/12/02 00:05:34;;;;;;;39.67;19.37;;;;;;;1.81;100.00;101951.08;5094473;55;1141040;-66
2022/12/02 00:10:41;;;;;;;56.15;21.62;;;;;;;1.79;100.00;101940.26;5114985;56;1141082;-65
2022/12/02 00:15:51;;;;;;;32.90;17.33;;;;;;;1.80;100.00;101949.36;5059767;56;1141121;-64
2022/12/02 00:20:57;;;;;;;31.97;17.47;;;;;;;1.77;100.00;101938.98;5096091;56;1141142;-65
2022/12/02 00:26:03;;;;;;;36.83;17.37;;;;;;;1.76;100.00;101950.30;5048450;56;1141116;-66
2022/12/02 00:31:08;;;;;;;34.27;17.63;;;;;;;1.72;100.00;101946.88;5011942;57;1141098;-64
2022/12/02 00:36:15;;;;;;;27.93;15.10;;;;;;;1.71;100.00;101953.42;5079348;56;1141198;-65
2022/12/02 00:41:21;;;;;;;39.40;20.97;;;;;;;1.72;100.00;101942.11;5101107;56;1141166;-64
2022/12/02 00:46:31;;;;;;;36.30;18.33;;;;;;;1.67;100.00;101941.35;5113726;56;1141466;-66
2022/12/02 00:51:40;;;;;;;43.13;21.37;;;;;;;1.65;100.00;101929.64;5094163;56;1141024;-68
2022/12/02 00:56:45;;;;;;;46.20;20.57;;;;;;;1.65;100.00;101933.55;5082706;56;1141079;-68
2022/12/02 01:01:51;;;;;;;48.53;23.10;;;;;;;1.65;100.00;101936.60;5025243;56;1141177;-64
2022/12/02 01:06:57;;;;;;;40.20;20.70;;;;;;;1.62;100.00;101935.34;5027332;56;1140966;-64
2022/12/02 01:12:03;;;;;;;47.47;22.87;;;;;;;1.66;100.00;101937.02;5013388;57;1141029;-65
2022/12/02 01:17:09;;;;;;;43.30;20.73;;;;;;;1.66;100.00;101927.45;5030862;57;1141158;-67
2022/12/02 01:22:15;;;;;;;53.37;24.20;;;;;;;1.67;100.00;101935.69;5079181;56;1141046;-68
2022/12/02 01:27:22;;;;;;;41.87;21.07;;;;;;;1.68;100.00;101928.73;4940008;57;1141193;-68
2022/12/02 01:32:28;;;;;;;46.60;23.43;;;;;;;1.64;100.00;101925.31;4949366;58;1141177;-65
2022/12/02 01:37:33;;;;;;;40.92;21.37;;;;;;;1.58;100.00;101921.94;4982652;57;1141153;-63
2022/12/02 01:42:41;;;;;;;33.92;14.65;;;;;;;1.60;100.00;101929.30;5004046;57;1141138;-64
2022/12/02 01:47:46;;;;;;;47.90;22.50;;;;;;;1.62;100.00;101927.08;5077689;56;1141147;-66
2022/12/02 01:52:52;;;;;;;47.03;21.82;;;;;;;1.57;100.00;101925.44;5080595;56;1141624;-65
2022/12/02 01:57:59;;;;;;;42.77;21.27;;;;;;;1.57;100.00;101917.17;4993862;56;1141192;-67
2022/12/02 02:03:05;;;;;;;48.77;21.17;;;;;;;1.50;100.00;101908.20;5082692;56;1141109;-65
2022/12/02 02:08:12;;;;;;;42.97;19.67;;;;;;;1.53;100.00;101915.97;4990845;57;1141123;-66
2022/12/02 02:13:18;;;;;;;38.85;18.45;;;;;;;1.49;100.00;101908.64;5011086;57;1141120;-67
2022/12/02 02:18:24;;;;;;;40.57;18.10;;;;;;;1.50;100.00;101910.36;5029629;56;1141038;-64
2022/12/02 02:23:30;;;;;;;40.73;19.00;;;;;;;1.49;100.00;101909.08;5016511;56;1140980;-66
2022/12/02 02:28:36;;;;;;;37.93;17.50;;;;;;;1.47;100.00;101899.13;4936094;57;1140931;-65
2022/12/02 02:33:42;;;;;;;38.77;18.10;;;;;;;1.47;100.00;101910.85;4910305;58;1141064;-65
2022/12/02 02:38:48;;;;;;;36.50;19.60;;;;;;;1.48;100.00;101906.06;4953531;57;1141087;-64
2022/12/02 02:43:56;;;;;;;38.17;18.47;;;;;;;1.52;100.00;101897.30;4998095;56;1140952;-67
2022/12/02 02:49:02;;;;;;;37.67;18.73;;;;;;;1.50;100.00;101892.56;5039446;56;1141125;-67
2022/12/02 02:54:08;;;;;;;46.17;20.00;;;;;;;1.47;100.00;101894.77;5102968;56;1141061;-65
2022/12/02 02:59:16;;;;;;;49.60;21.37;;;;;;;1.42;100.00;101895.28;5100898;56;1141114;-63
2022/12/02 03:04:26;;;;;;;42.98;22.25;;;;;;;1.40;100.00;101898.36;5069648;56;1141260;-67
2022/12/02 03:09:33;;;;;;;50.10;24.03;;;;;;;1.39;100.00;101887.52;5109714;56;1141029;-63
2022/12/02 03:14:38;;;;;;;52.20;24.83;;;;;;;1.33;100.00;101892.86;5076641;56;1141548;-64
2022/12/02 03:19:45;;;;;;;49.83;24.23;;;;;;;1.26;100.00;101882.97;5080097;56;1141032;-63
2022/12/02 03:24:51;;;;;;;51.28;25.00;;;;;;;1.22;100.00;101890.88;5111179;56;1141080;-63
2022/12/02 03:29:56;;;;;;;52.40;23.83;;;;;;;1.18;100.00;101891.37;5007258;56;1141062;-66
2022/12/02 03:35:03;;;;;;;45.55;23.85;;;;;;;1.14;100.00;101891.00;5022741;56;1141017;-64
2022/12/02 03:40:09;;;;;;;56.13;24.23;;;;;;;1.08;100.00;101888.48;5023195;57;1141294;-63
2022/12/02 03:45:15;;;;;;;43.87;22.17;;;;;;;1.04;100.00;101889.00;4998539;57;1141160;-66
2022/12/02 03:50:23;;;;;;;54.05;25.32;;;;;;;1.04;100.00;101882.48;4937699;56;1140946;-64
2022/12/02 03:55:29;;;;;;;50.87;24.57;;;;;;;1.02;100.00;101878.19;4989820;56;1141131;-64
2022/12/02 04:00:37;;;;;;;45.53;22.03;;;;;;;1.00;100.00;101893.84;5000851;55;1141094;-65
2022/12/02 04:05:43;;;;;;;45.73;22.83;;;;;;;0.94;100.00;101886.11;5005488;57;1141017;-67
2022/12/02 04:10:48;;;;;;;42.90;21.37;;;;;;;0.86;100.00;101878.88;5025239;56;1141000;-66
2022/12/02 04:15:54;;;;;;;55.57;23.57;;;;;;;0.78;100.00;101882.02;5087560;56;1141128;-66
2022/12/02 04:21:00;;;;;;;47.53;22.03;;;;;;;0.72;100.00;101880.83;5034805;56;1141597;-66
2022/12/02 04:26:06;;;;;;;46.73;20.90;;;;;;;0.70;100.00;101874.78;4976336;56;1141142;-66
2022/12/02 04:31:14;;;;;;;46.63;21.07;;;;;;;0.64;100.00;101886.14;4985842;57;1140943;-67
2022/12/02 04:36:19;;;;;;;42.40;19.95;;;;;;;0.59;100.00;101887.11;5010719;57;1141164;-67
2022/12/02 04:41:25;;;;;;;51.77;23.67;;;;;;;0.53;100.00;101887.19;5049306;56;1140990;-66
2022/12/02 04:46:32;;;;;;;38.63;21.03;;;;;;;0.52;100.00;101885.02;4966852;57;1141197;-65
2022/12/02 04:51:38;;;;;;;43.30;20.93;;;;;;;0.53;100.00;101889.79;4944121;57;1236629;-68
2022/12/02 04:56:43;;;;;;;43.97;21.53;;;;;;;0.51;100.00;101888.95;5010065;56;1141102;-64
2022/12/02 05:01:49;;;;;;;48.40;22.47;;;;;;;0.48;100.00;101891.14;5033094;56;1141047;-64
2022/12/02 05:06:55;;;;;;;45.73;23.47;;;;;;;0.45;100.00;101892.95;5087045;56;1140912;-66
2022/12/02 05:12:00;;;;;;;57.70;26.97;;;;;;;0.45;100.00;101899.02;5102328;56;1141090;-67
2022/12/02 05:17:06;;;;;;;46.13;22.73;;;;;;;0.48;100.00;101900.26;5089709;56;1141123;-66
2022/12/02 05:22:11;;;;;;;114.52;44.60;;;;;;;0.53;100.00;101896.30;5081982;56;1141092;-67
2022/12/02 05:27:17;;;;;;;71.86;31.50;;;;;;;0.56;100.00;101898.86;4911539;58;1143227;-67
2022/12/02 05:32:23;;;;;;;67.03;31.70;;;;;;;0.54;100.00;101894.98;4953436;58;1141035;-67
2022/12/02 05:37:28;;;;;;;59.77;25.97;;;;;;;0.51;100.00;101900.22;5009448;57;1140994;-66
2022/12/02 05:42:35;;;;;;;44.43;23.07;;;;;;;0.51;100.00;101896.31;5117949;56;1196967;-64
2022/12/02 05:47:41;;;;;;;45.40;23.93;;;;;;;0.51;100.00;101894.16;5101408;56;1141075;-64
2022/12/02 05:52:51;;;;;;;39.10;20.93;;;;;;;0.45;100.00;101896.42;5043830;56;1141073;-63
2022/12/02 05:58:00;;;;;;;37.37;20.87;;;;;;;0.40;100.00;101893.45;5031115;56;1140970;-64
2022/12/02 06:03:11;;;;;;;43.70;21.77;;;;;;;0.34;100.00;101896.98;5047055;56;1140900;-67
2022/12/02 06:08:26;;;;;;;39.33;20.10;;;;;;;0.33;100.00;101897.42;5009519;56;1141037;-63
2022/12/02 06:13:38;;;;;;;40.90;21.20;;;;;;;0.33;100.00;101902.62;4960831;56;1140828;-65
2022/12/02 06:18:43;;;;;;;106.90;38.47;;;;;;;0.26;100.00;101903.61;5027639;57;1140957;-65
2022/12/02 06:23:54;;;;;;;53.20;25.23;;;;;;;0.23;100.00;101898.88;4980535;57;1143056;-66
2022/12/02 06:29:04;;;;;;;40.38;21.55;;;;;;;0.20;100.00;101900.21;4926557;58;1141112;-67
2022/12/02 06:34:34;;;;;;;29.80;15.47;;;;;;;0.16;100.00;101918.89;4967807;57;1140963;-67
2022/12/02 06:39:40;;;;;;;42.23;20.47;;;;;;;0.10;100.00;101911.63;4906791;57;1140887;-63
2022/12/02 06:45:05;;;;;;;43.83;20.80;;;;;;;-0.03;100.00;101913.08;4978084;57;1140867;-64
2022/12/02 06:50:27;;;;;;;47.95;23.27;;;;;;;-0.08;100.00;101914.86;5050280;56;1143342;-67
2022/12/02 06:55:36;;;;;;;99.22;68.05;;;;;;;-0.13;100.00;101923.14;5030119;57;1143273;-65
2022/12/02 07:00:43;;;;;;;39.57;21.13;;;;;;;-0.09;100.00;101934.38;5018853;57;1143214;-67
2022/12/02 07:05:52;;;;;;;36.27;20.53;;;;;;;-0.10;100.00;101933.52;4956124;58;1142957;-68
2022/12/02 07:10:58;;;;;;;51.90;24.73;;;;;;;-0.12;100.00;101930.50;4960831;57;1143132;-66
2022/12/02 07:16:08;;;;;;;78.47;41.67;;;;;;;-0.15;100.00;101934.43;5028507;57;1143320;-64
2022/12/02 07:21:15;;;;;;;38.50;21.77;;;;;;;-0.20;100.00;101942.30;5014305;57;1143214;-64
2022/12/02 07:26:21;;;;;;;47.73;24.00;;;;;;;-0.24;100.00;101950.14;5052971;56;1143151;-66
2022/12/02 07:31:29;;;;;;;40.28;23.22;;;;;;;-0.26;100.00;101958.39;5065380;56;1143044;-63
2022/12/02 07:36:34;;;;;;;49.73;22.53;;;;;;;-0.30;100.00;101956.69;4998976;57;1143112;-67
2022/12/02 07:41:40;;;;;;;48.37;22.83;;;;;;;-0.30;100.00;101966.65;5024978;57;1143071;-67
2022/12/02 07:46:46;;;;;;;96.77;40.00;;;;;;;-0.26;100.00;101967.48;5034350;57;1142959;-68
2022/12/02 07:51:51;;;;;;;65.03;30.03;;;;;;;-0.28;100.00;101961.00;5074031;57;1143122;-66
2022/12/02 07:56:57;;;;;;;72.60;31.80;;;;;;;-0.30;100.00;101957.55;5089471;57;1143094;-64
2022/12/02 08:02:02;;;;;;;64.10;25.50;;;;;;;-0.36;100.00;101957.62;5029396;56;1143160;-65
2022/12/02 08:07:08;;;;;;;60.85;28.20;;;;;;;-0.41;100.00;101961.56;5093739;56;1143401;-66
2022/12/02 08:12:15;;;;;;;80.90;35.10;;;;;;;-0.44;100.00;101961.58;5114150;56;1143031;-67
2022/12/02 08:17:22;;;;;;;58.17;29.97;;;;;;;-0.46;100.00;101953.41;5122693;56;1143131;-65
2022/12/02 08:22:28;;;;;;;49.67;22.75;;;;;;;-0.43;100.00;101954.65;5096139;56;1143028;-64
2022/12/02 08:27:34;;;;;;;74.37;33.13;;;;;;;-0.41;100.00;101950.30;4995518;57;1143003;-65
2022/12/02 08:32:40;;;;;;;56.83;27.25;;;;;;;-0.42;100.00;101952.04;5089958;56;1143064;-65
2022/12/02 08:37:45;;;;;;;55.33;29.60;;;;;;;-0.42;100.00;101954.64;5034141;56;1142983;-66
2022/12/02 08:42:51;;;;;;;57.80;27.10;;;;;;;-0.48;100.00;101965.11;5042380;56;1143225;-65
2022/12/02 08:47:57;;;;;;;56.97;31.37;;;;;;;-0.51;100.00;101968.16;5067096;57;1143244;-65
2022/12/02 08:53:03;;;;;;;59.67;30.67;;;;;;;-0.56;100.00;101985.52;5062498;56;1143162;-67
2022/12/02 08:58:09;;;;;;;52.07;27.77;;;;;;;-0.58;100.00;101990.73;5044068;56;1143017;-66
2022/12/02 09:03:15;;;;;;;72.93;35.40;;;;;;;-0.60;100.00;101992.91;4950757;56;1143226;-65
2022/12/02 09:08:21;;;;;;;58.60;31.87;;;;;;;-0.59;100.00;101990.73;4946590;58;1143079;-67
2022/12/02 09:13:26;;;;;;;54.87;29.67;;;;;;;-0.55;100.00;101995.05;4927189;57;1152476;-63
2022/12/02 09:18:32;;;;;;;63.23;31.57;;;;;;;-0.58;100.00;101991.16;4929269;57;1143240;-64
2022/12/02 09:23:38;;;;;;;58.63;31.30;;;;;;;-0.59;100.00;101985.54;5052103;56;1143165;-63
2022/12/02 09:28:44;;;;;;;67.60;31.55;;;;;;;-0.54;100.00;101986.37;5003983;56;1143143;-68
2022/12/02 09:33:49;;;;;;;50.90;24.00;;;;;;;-0.50;100.00;101990.68;5029706;57;1143198;-67
2022/12/02 09:38:55;;;;;;;60.90;30.20;;;;;;;-0.46;100.00;101981.99;5050487;57;1143251;-65
2022/12/02 09:44:01;;;;;;;83.47;45.52;;;;;;;-0.54;100.00;101990.27;5030419;56;1143122;-66
2022/12/02 09:49:07;;;;;;;101.90;46.97;;;;;;;-0.59;100.00;101990.73;5031100;56;1143234;-65
2022/12/02 09:54:16;;;;;;;45.23;20.87;;;;;;;-0.63;100.00;101992.96;5031152;56;1145401;-66
2022/12/02 09:59:23;;;;;;;54.43;26.50;;;;;;;-0.67;100.00;101993.41;5050798;56;1143054;-65
2022/12/02 10:04:29;;;;;;;62.13;29.77;;;;;;;-0.70;100.00;101984.34;5035070;56;1143107;-68
2022/12/02 10:09:35;;;;;;;60.83;28.87;;;;;;;-0.72;100.00;101983.48;5042372;56;1143038;-66
2022/12/02 10:14:45;;;;;;;55.43;26.07;;;;;;;-0.78;100.00;101980.52;5126543;56;1143184;-66
2022/12/02 10:19:52;;;;;;;51.88;25.08;;;;;;;-0.82;100.00;101976.21;5091424;56;1142956;-65
2022/12/02 10:24:58;;;;;;;69.47;41.93;;;;;;;-0.86;100.00;101976.23;4983892;56;1143207;-64
2022/12/02 10:30:22;;;;;;;54.80;26.90;;;;;;;-0.92;100.00;101971.10;4960827;58;1143176;-67
2022/12/02 10:35:29;;;;;;;52.25;27.13;;;;;;;-0.94;100.00;101972.41;4933183;58;1143193;-64
2022/12/02 10:40:35;;;;;;;62.60;29.95;;;;;;;-0.93;100.00;101972.84;4929974;58;1142983;-63
2022/12/02 10:45:40;;;;;;;69.90;32.33;;;;;;;-0.83;100.00;101970.59;4971424;56;1142931;-67
2022/12/02 10:50:46;;;;;;;57.70;27.50;;;;;;;-0.80;100.00;101971.87;5106517;56;1143010;-70
2022/12/02 10:55:51;;;;;;;71.67;27.17;;;;;;;-0.78;100.00;101960.17;5106620;56;1143008;-65
2022/12/02 11:00:59;;;;;;;87.30;34.83;;;;;;;-0.82;100.00;101959.33;5103802;56;1143021;-67
2022/12/02 11:06:18;;;;;;;86.40;33.83;;;;;;;-0.82;100.00;101958.47;5012180;57;1143276;-67
2022/12/02 11:11:29;;;;;;;66.70;28.27;;;;;;;-0.81;100.00;101961.48;5010356;57;1142953;-67
2022/12/02 11:16:44;;;;;;;101.83;36.83;;;;;;;-0.83;100.00;101952.41;5017034;56;1143041;-68
2022/12/02 11:21:51;;;;;;;153.90;83.87;;;;;;;-0.89;100.00;101943.35;5083500;56;1145040;-67
2022/12/02 11:27:05;;;;;;;76.37;40.57;;;;;;;-0.90;100.00;101940.33;5041768;56;1145230;-66
2022/12/02 11:32:31;;;;;;;42.97;20.70;;;;;;;-0.85;100.00;101935.11;5042913;56;1143050;-66
2022/12/02 11:37:39;;;;;;;62.45;28.17;;;;;;;-0.85;100.00;101935.11;4927386;57;1143102;-65
2022/12/02 11:42:46;;;;;;;41.53;20.23;;;;;;;-0.85;100.00;101929.91;4956234;57;1143045;-66
2022/12/02 11:48:00;;;;;;;55.88;26.75;;;;;;;-0.85;100.00;101915.19;4970924;57;1143067;-68
2022/12/02 11:53:18;;;;;;;54.10;25.50;;;;;;;-0.94;100.00;101924.38;5028116;57;1143155;-66
2022/12/02 11:58:31;;;;;;;62.37;33.97;;;;;;;-0.98;100.00;101926.55;5028073;57;1143250;-69
2022/12/02 12:03:43;;;;;;;49.90;24.97;;;;;;;-1.01;100.00;101925.70;4980908;57;1142989;-65
2022/12/02 12:08:53;;;;;;;48.78;24.12;;;;;;;-0.98;100.00;101928.29;4943829;57;1143016;-68
2022/12/02 12:14:17;;;;;;;67.30;31.33;;;;;;;-0.97;100.00;101931.31;5019629;56;1143005;-68
2022/12/02 12:19:25;;;;;;;61.40;27.43;;;;;;;-0.99;100.00;101934.36;5127962;56;1143060;-68
2022/12/02 12:24:33;;;;;;;62.20;29.98;;;;;;;-1.04;100.00;101932.22;5107720;56;1143114;-69
2022/12/02 12:29:40;;;;;;;54.40;27.27;;;;;;;-1.07;100.00;101930.06;5041535;57;1142951;-66
2022/12/02 12:34:46;;;;;;;56.50;28.98;;;;;;;-1.06;100.00;101921.84;5094344;56;1143084;-68
2022/12/02 12:39:51;;;;;;;58.10;29.07;;;;;;;-1.01;100.00;101924.41;5147838;56;1143193;-64
2022/12/02 12:44:59;;;;;;;43.30;22.93;;;;;;;-1.02;100.00;101926.58;5121546;56;1143087;-68
2022/12/02 12:50:05;;;;;;;43.33;22.67;;;;;;;-1.02;100.00;101930.48;5042838;57;1143086;-70
2022/12/02 12:55:11;;;;;;;53.63;27.17;;;;;;;-1.12;100.00;101924.50;5063224;57;1143129;-66
2022/12/02 13:00:18;;;;;;;59.43;25.03;;;;;;;-1.12;100.00;101924.06;5054587;56;1142990;-69
2022/12/02 13:05:23;;;;;;;47.17;24.63;;;;;;;-1.08;100.00;101927.08;5127595;56;1142991;-64
2022/12/02 13:10:29;;;;;;;57.27;27.67;;;;;;;-1.10;100.00;101921.03;5148237;55;1143259;-65
2022/12/02 13:15:34;;;;;;;210.35;115.45;;;;;;;-1.11;100.00;101919.30;5128172;56;1143044;-66
2022/12/02 13:20:41;;;;;;;55.07;34.17;;;;;;;-1.09;100.00;101924.05;5128030;56;1147255;-64
2022/12/02 13:25:46;;;;;;;54.77;30.67;;;;;;;-1.13;100.00;101922.77;5148638;56;1143069;-65
2022/12/02 13:30:54;;;;;;;47.83;26.12;;;;;;;-1.15;100.00;101921.48;5128370;56;1143155;-64
2022/12/02 13:36:00;;;;;;;54.50;27.77;;;;;;;-1.19;100.00;101910.69;5128243;56;1143018;-68
2022/12/02 13:41:06;;;;;;;49.23;26.07;;;;;;;-1.15;100.00;101911.10;5148490;56;1143035;-69
2022/12/02 13:46:11;;;;;;;75.30;48.03;;;;;;;-1.18;100.00;101915.01;5101198;56;1143282;-68
2022/12/02 13:51:17;;;;;;;69.50;35.10;;;;;;;-1.15;100.00;101915.43;5043775;57;1142972;-66
2022/12/02 13:56:23;;;;;;;59.27;29.85;;;;;;;-1.17;100.00;101921.92;5043595;57;1143105;-70
2022/12/02 14:01:29;;;;;;;57.87;27.97;;;;;;;-1.29;100.00;101925.91;5075590;56;1143155;-64
2022/12/02 14:06:34;;;;;;;74.77;30.95;;;;;;;-1.27;100.00;101942.77;5128049;56;1142944;-68
2022/12/02 14:11:40;;;;;;;82.33;33.03;;;;;;;-1.33;100.00;101937.17;5078757;56;1142941;-65
2022/12/02 14:16:46;;;;;;;92.83;37.53;;;;;;;-1.32;100.00;101945.82;5019989;56;1143032;-64
2022/12/02 14:21:51;;;;;;;67.53;26.60;;;;;;;-1.28;100.00;101950.99;4935309;58;1143038;-65
2022/12/02 14:26:57;;;;;;;69.37;31.87;;;;;;;-1.31;100.00;101952.73;4941329;58;1143029;-69
2022/12/02 14:32:03;;;;;;;87.87;32.40;;;;;;;-1.35;100.00;101955.78;4960926;57;1143189;-66
2022/12/02 14:37:08;;;;;;;67.40;29.30;;;;;;;-1.31;100.00;101959.23;4941493;57;1143065;-66
2022/12/02 14:42:14;;;;;;;65.53;29.83;;;;;;;-1.37;100.00;101964.44;4941419;57;1143098;-65
2022/12/02 14:47:19;;;;;;;221.00;90.13;;;;;;;-1.44;100.00;101962.33;4971103;57;1143223;-65
2022/12/02 14:52:25;;;;;;;233.60;123.83;;;;;;;-1.44;100.00;101961.89;5042252;57;1145172;-65
2022/12/02 14:57:31;;;;;;;75.67;33.87;;;;;;;-1.40;100.00;101969.23;5022471;57;1147358;-68
2022/12/02 15:02:37;;;;;;;70.08;29.18;;;;;;;-1.34;100.00;101969.18;5023548;56;1143129;-66
2022/12/02 15:07:43;;;;;;;67.17;27.97;;;;;;;-1.30;100.00;101965.70;5046291;56;1143232;-67
2022/12/02 15:12:50;;;;;;;71.30;29.90;;;;;;;-1.31;100.00;101971.77;5068911;56;1143104;-67
2022/12/02 15:17:55;;;;;;;58.10;26.03;;;;;;;-1.29;100.00;101969.16;5086449;56;1143036;-66
2022/12/02 15:23:01;;;;;;;46.63;22.97;;;;;;;-1.26;100.00;101967.42;5100050;56;1143015;-68
2022/12/02 15:28:06;;;;;;;39.97;19.87;;;;;;;-1.32;100.00;101964.85;5027139;56;1143134;-66
2022/12/02 15:33:13;;;;;;;51.63;23.33;;;;;;;-1.37;100.00;101959.25;5061647;56;1143213;-66
2022/12/02 15:38:18;;;;;;;66.17;27.05;;;;;;;-1.43;100.00;101954.97;5007913;57;1143027;-64
2022/12/02 15:43:26;;;;;;;53.77;26.20;;;;;;;-1.44;100.00;101963.62;5015405;57;1143094;-65
2022/12/02 15:48:31;;;;;;;105.40;34.75;;;;;;;-1.45;100.00;101966.66;4974100;57;1142927;-68
2022/12/02 15:53:37;;;;;;;84.83;31.10;;;;;;;-1.46;100.00;101969.25;4938260;57;1145245;-67
2022/12/02 15:58:43;;;;;;;266.30;128.85;;;;;;;-1.40;100.00;101965.34;4973798;56;1143054;-63
2022/12/02 16:03:48;;;;;;;117.93;47.17;;;;;;;-1.38;100.00;101966.64;5002139;56;1147211;-63
2022/12/02 16:08:54;;;;;;;150.43;63.40;;;;;;;-1.33;100.00;101963.55;5006527;57;1145196;-64
2022/12/02 16:14:00;;;;;;;100.20;35.70;;;;;;;-1.31;100.00;101960.52;5047825;56;1145153;-68
2022/12/02 16:19:05;;;;;;;164.93;75.93;;;;;;;-1.25;100.00;101970.88;5105025;56;1145101;-67
2022/12/02 16:24:11;;;;;;;88.10;37.00;;;;;;;-1.26;100.00;101972.61;5107164;56;1145198;-65
2022/12/02 16:29:17;;;;;;;72.37;33.50;;;;;;;-1.29;100.00;101975.66;5107227;56;1143288;-65
2022/12/02 16:34:23;;;;;;;88.70;34.87;;;;;;;-1.33;100.00;101969.61;5092750;56;1143235;-64
2022/12/02 16:39:28;;;;;;;100.33;35.20;;;;;;;-1.35;100.00;101978.27;5042254;56;1142990;-67
2022/12/02 16:44:34;;;;;;;94.30;34.87;;;;;;;-1.37;100.00;101983.47;5030164;57;1145096;-68
2022/12/02 16:49:40;;;;;;;59.00;24.37;;;;;;;-1.32;100.00;101983.02;4981356;58;1142986;-66
2022/12/02 16:54:46;;;;;;;78.80;30.43;;;;;;;-1.30;100.00;101976.09;5031200;56;1143001;-65
2022/12/02 16:59:52;;;;;;;93.77;34.10;;;;;;;-1.28;100.00;101978.24;5007963;57;1142968;-64
2022/12/02 17:04:58;;;;;;;76.53;31.10;;;;;;;-1.25;100.00;101978.23;5067204;56;1143058;-67
2022/12/02 17:10:04;;;;;;;74.33;28.63;;;;;;;-1.24;100.00;101980.39;5041122;57;1143119;-64
2022/12/02 17:15:12;;;;;;;71.90;32.57;;;;;;;-1.22;100.00;101986.44;5041318;56;1143045;-67
2022/12/02 17:20:18;;;;;;;71.23;29.97;;;;;;;-1.23;100.00;101979.52;5007434;57;1143161;-67
2022/12/02 17:25:23;;;;;;;69.60;28.57;;;;;;;-1.26;100.00;101973.05;5027310;57;1143143;-67
2022/12/02 17:30:29;;;;;;;100.27;35.30;;;;;;;-1.26;100.00;101969.16;5068840;56;1143449;-65
2022/12/02 17:35:35;;;;;;;68.62;29.35;;;;;;;-1.31;100.00;101970.91;5072406;56;1145220;-68
2022/12/02 17:40:40;;;;;;;78.33;30.80;;;;;;;-1.34;100.00;101970.48;5021798;56;1143156;-67
2022/12/02 17:45:46;;;;;;;88.97;30.70;;;;;;;-1.37;100.00;101976.11;4924208;56;1143228;-66
2022/12/02 17:50:51;;;;;;;62.60;26.37;;;;;;;-1.38;100.00;101977.88;5019357;56;1143143;-68
2022/12/02 17:55:58;;;;;;;50.30;24.33;;;;;;;-1.43;100.00;101972.70;4956763;57;1143135;-67
2022/12/02 18:01:04;;;;;;;71.67;26.60;;;;;;;-1.46;100.00;101974.44;4975398;56;1143082;-68
2022/12/02 18:06:10;;;;;;;64.17;28.70;;;;;;;-1.47;100.00;101974.88;5032631;56;1143057;-67
2022/12/02 18:11:16;;;;;;;54.67;25.20;;;;;;;-1.48;100.00;101970.55;4990413;57;1143104;-66
2022/12/02 18:16:22;;;;;;;53.13;27.57;;;;;;;-1.56;100.00;101965.86;5050460;56;1142987;-66
2022/12/02 18:21:28;;;;;;;80.67;30.80;;;;;;;-1.54;100.00;101981.41;5040405;57;1143156;-68
2022/12/02 18:26:33;;;;;;;56.08;27.02;;;;;;;-1.57;100.00;101980.13;5038656;57;1143241;-66
2022/12/02 18:31:39;;;;;;;51.75;23.73;;;;;;;-1.55;100.00;101974.06;5048039;56;1142931;-66
2022/12/02 18:36:44;;;;;;;50.00;27.07;;;;;;;-1.55;100.00;101979.69;5044230;56;1143129;-64
2022/12/02 18:41:50;;;;;;;48.20;23.62;;;;;;;-1.60;100.00;101973.21;5103049;56;1142934;-67
2022/12/02 18:46:56;;;;;;;59.53;30.03;;;;;;;-1.61;100.00;101970.62;5101240;56;1143058;-68
2022/12/02 18:52:02;;;;;;;64.87;26.87;;;;;;;-1.59;100.00;101972.78;5037598;57;1143029;-66
2022/12/02 18:57:08;;;;;;;69.00;31.37;;;;;;;-1.58;100.00;101967.59;5018355;57;1143073;-67
2022/12/02 19:02:14;;;;;;;89.92;37.55;;;;;;;-1.53;100.00;101967.58;5019111;57;1143084;-68
2022/12/02 19:07:20;;;;;;;57.17;26.53;;;;;;;-1.52;100.00;101970.56;4977690;57;1142988;-66
2022/12/02 19:12:26;;;;;;;48.07;21.67;;;;;;;-1.53;100.00;101969.70;4957115;57;1143069;-65
2022/12/02 19:17:32;;;;;;;57.73;21.15;;;;;;;-1.54;100.00;101970.60;4957211;57;1142974;-68
2022/12/02 19:22:37;;;;;;;50.03;24.87;;;;;;;-1.58;100.00;101975.80;4975875;57;1143049;-65
2022/12/02 19:27:43;;;;;;;47.65;22.10;;;;;;;-1.62;100.00;101972.78;4987088;56;1143006;-64
2022/12/02 19:32:48;;;;;;;64.92;26.80;;;;;;;-1.61;100.00;101979.27;4994643;57;1143114;-63
2022/12/02 19:37:54;;;;;;;55.75;26.37;;;;;;;-1.64;100.00;101977.11;5097075;56;1143033;-68
2022/12/02 19:43:00;;;;;;;46.77;21.83;;;;;;;-1.60;100.00;101985.31;5060043;56;1142873;-66
2022/12/02 19:48:06;;;;;;;37.90;16.87;;;;;;;-1.58;100.00;101983.16;5060398;56;1143134;-65
2022/12/02 19:53:12;;;;;;;69.20;26.00;;;;;;;-1.63;100.00;101980.14;5104853;56;1143116;-69
2022/12/02 19:58:18;;;;;;;81.80;31.57;;;;;;;-1.70;100.00;101978.02;5084190;56;1143083;-67
2022/12/02 20:03:23;;;;;;;71.27;30.37;;;;;;;-1.67;100.00;101976.69;5033961;56;1143044;-65
2022/12/02 20:08:30;;;;;;;47.27;20.37;;;;;;;-1.64;100.00;101979.70;5012094;57;1142937;-68
2022/12/02 20:13:36;;;;;;;62.73;26.67;;;;;;;-1.64;100.00;101982.30;5009763;57;1143135;-67
2022/12/02 20:18:41;;;;;;;50.15;25.17;;;;;;;-1.69;100.00;101986.66;5007149;57;1142957;-68
2022/12/02 20:23:47;;;;;;;49.70;22.97;;;;;;;-1.69;100.00;101986.23;5084016;56;1143200;-64
2022/12/02 20:28:53;;;;;;;58.87;24.90;;;;;;;-1.71;100.00;101980.62;5043816;56;1142936;-64
2022/12/02 20:33:58;;;;;;;57.90;24.83;;;;;;;-1.73;100.00;101981.91;5014262;56;1143274;-69
2022/12/02 20:39:05;;;;;;;52.13;25.43;;;;;;;-1.80;100.00;101970.69;5043430;57;1142989;-66
2022/12/02 20:44:10;;;;;;;57.63;22.77;;;;;;;-1.78;100.00;101979.33;5007998;57;1143011;-68
2022/12/02 20:49:16;;;;;;;73.73;29.53;;;;;;;-1.82;100.00;101984.52;5051129;56;1143058;-68
2022/12/02 20:54:21;;;;;;;55.03;24.15;;;;;;;-1.87;100.00;101985.86;5052362;56;1143097;-67
2022/12/02 20:59:27;;;;;;;67.83;25.53;;;;;;;-1.86;100.00;101984.99;5019961;57;1143234;-63
2022/12/02 21:04:33;;;;;;;57.80;24.03;;;;;;;-1.87;100.00;101979.37;4992335;56;1143016;-66
2022/12/02 21:09:38;;;;;;;50.33;24.63;;;;;;;-1.88;100.00;101982.83;4941228;58;1143022;-70
2022/12/02 21:14:44;;;;;;;48.25;24.05;;;;;;;-1.84;100.00;101983.69;4998193;57;1143062;-68
2022/12/02 21:19:49;;;;;;;55.63;25.17;;;;;;;-1.92;100.00;101978.52;5009289;57;1142985;-68
2022/12/02 21:24:55;;;;;;;56.97;26.53;;;;;;;-1.93;100.00;101977.22;5009322;57;1143005;-64
2022/12/02 21:30:01;;;;;;;58.50;24.13;;;;;;;-1.96;100.00;101982.41;5029213;56;1143066;-66
2022/12/02 21:35:07;;;;;;;55.53;24.47;;;;;;;-2.00;100.00;101985.47;5006291;57;1143173;-66
2022/12/02 21:40:15;;;;;;;70.83;29.27;;;;;;;-2.00;100.00;101975.09;5017481;56;1143408;-65
2022/12/02 21:45:22;;;;;;;59.00;24.23;;;;;;;-1.98;100.00;101975.06;4995450;57;1143147;-68
2022/12/02 21:50:28;;;;;;;65.40;31.50;;;;;;;-1.99;100.00;101977.26;4945989;58;1142970;-66
2022/12/02 21:55:34;;;;;;;64.87;26.90;;;;;;;-2.00;100.00;101969.91;4926795;58;1142981;-63
2022/12/02 22:00:39;;;;;;;52.83;22.30;;;;;;;-1.98;100.00;101975.93;5013075;56;1142987;-65
2022/12/02 22:05:45;;;;;;;54.07;25.23;;;;;;;-1.98;100.00;101974.62;5066856;56;1143356;-68
2022/12/02 22:10:51;;;;;;;49.90;22.00;;;;;;;-2.01;100.00;101977.69;5007276;56;1143070;-67
2022/12/02 22:15:56;;;;;;;45.40;22.27;;;;;;;-2.04;100.00;101975.09;5007566;56;1142991;-66
2022/12/02 22:21:03;;;;;;;51.53;24.57;;;;;;;-2.04;100.00;101971.21;5027357;57;1143133;-65
2022/12/02 22:26:08;;;;;;;40.27;20.07;;;;;;;-2.05;100.00;101966.45;5010102;57;1143001;-65
2022/12/02 22:31:14;;;;;;;60.93;25.17;;;;;;;-2.07;100.00;101959.12;5048939;56;1142989;-66